Mar del Tuyu, Argentina
Current Conditions -  °F | °C
As of 9:00 AM on Monday 26 Jan 2015 (Local Time) from SAZM Reporting Station
Broken Clouds Broken Clouds  
Wind Chill: 66°   Ceiling: 20000
Heat Index: 66°   Visibility: 6mi
Dew Point: 61°   Wind: 5mph
Humidity: 83%   Direction: 50°NE
Pressure: 29.83"   Gusts: NA
Location:  36.55°S, 56.68°W
Report Text: SAZM 261200Z 05004KT 9999 FEW025 SCT100BKN200 19/16 Q1010
Loading
Personal Weather Stations






























Interactive Weather Map New forecast layout! Learn more

10-Day Weather Forecast

Advertisements
Track Severe Weather on mobile